createdAt,value
2022-08-05T00:00:23.863Z,3.63
2022-08-05T00:02:54.065Z,3.30
2022-08-05T00:06:01.458Z,3.75
2022-08-05T00:08:32.694Z,3.35
2022-08-05T00:11:01.681Z,3.30
2022-08-05T00:13:38.703Z,3.50
2022-08-05T00:16:10.873Z,3.42
2022-08-05T00:18:41.226Z,3.08
2022-08-05T00:21:11.964Z,2.92
2022-08-05T00:23:46.556Z,2.88
2022-08-05T00:26:22.394Z,3.00
2022-08-05T00:28:51.494Z,2.97
2022-08-05T00:31:53.349Z,3.10
2022-08-05T00:34:56.663Z,4.38
2022-08-05T00:37:10.922Z,3.00
2022-08-05T00:39:57.384Z,3.72
2022-08-05T00:42:33.279Z,3.35
2022-08-05T00:45:01.505Z,3.60
2022-08-05T00:47:52.870Z,3.70
2022-08-05T00:50:17.927Z,2.80
2022-08-05T00:52:47.358Z,3.00
2022-08-05T00:55:15.362Z,3.30
2022-08-05T00:57:57.906Z,3.72
2022-08-05T01:00:28.179Z,3.97
2022-08-05T01:02:56.930Z,3.35
2022-08-05T01:05:27.487Z,3.40
2022-08-05T01:08:40.389Z,4.38
2022-08-05T01:10:52.420Z,3.40
2022-08-05T01:13:57.093Z,3.70
2022-08-05T01:16:26.198Z,3.78
2022-08-05T01:19:01.104Z,3.60
2022-08-05T01:21:51.215Z,3.63
2022-08-05T01:24:42.340Z,3.85
2022-08-05T01:27:25.138Z,3.55
2022-08-05T01:29:59.187Z,3.10
2022-08-05T01:32:32.074Z,3.30
2022-08-05T01:35:10.350Z,3.30
2022-08-05T01:37:44.994Z,2.67
2022-08-05T01:40:17.917Z,3.40
2022-08-05T01:42:47.587Z,3.00
2022-08-05T01:45:19.210Z,3.50
2022-08-05T01:47:50.409Z,3.22
2022-08-05T01:50:28.539Z,3.40
2022-08-05T01:53:00.918Z,3.47
2022-08-05T01:55:36.253Z,3.25
2022-08-05T01:59:14.807Z,3.38
2022-08-05T02:01:47.579Z,3.00
2022-08-05T02:04:19.502Z,3.63
2022-08-05T02:06:47.754Z,3.72
2022-08-05T02:09:16.576Z,3.42
2022-08-05T02:11:55.531Z,3.20
2022-08-05T02:14:32.082Z,3.92
2022-08-05T02:17:07.964Z,4.28
2022-08-05T02:19:49.411Z,3.65
2022-08-05T02:22:26.454Z,3.72
2022-08-05T02:25:02.466Z,3.78
2022-08-05T02:27:58.950Z,3.90
2022-08-05T02:30:23.575Z,3.65
2022-08-05T02:32:59.071Z,4.28
2022-08-05T02:35:33.215Z,3.85
2022-08-05T02:38:09.339Z,3.80
2022-08-05T02:40:39.156Z,3.80
2022-08-05T02:43:07.939Z,3.77
2022-08-05T02:45:52.824Z,4.67
2022-08-05T02:48:29.186Z,4.35
2022-08-05T02:51:00.354Z,4.63
2022-08-05T02:53:35.934Z,4.07
2022-08-05T02:56:09.486Z,4.47
2022-08-05T02:58:43.627Z,4.05
2022-08-05T03:06:55.098Z,4.47
2022-08-05T03:09:27.103Z,3.75
2022-08-05T03:12:07.839Z,4.38
2022-08-05T03:14:45.581Z,4.57
2022-08-05T03:17:13.933Z,4.63
2022-08-05T03:19:42.413Z,4.85
2022-08-05T03:22:16.457Z,3.97
2022-08-05T03:24:50.942Z,4.80
2022-08-05T03:27:20.069Z,4.50
2022-08-05T03:30:07.578Z,4.97
2022-08-05T03:32:37.066Z,4.47
2022-08-05T03:35:06.073Z,4.47
2022-08-05T03:37:45.855Z,4.43
2022-08-05T03:40:24.070Z,4.45
2022-08-05T03:43:01.366Z,5.38
2022-08-05T03:45:58.037Z,4.95
2022-08-05T03:48:27.324Z,4.83
2022-08-05T03:52:34.900Z,5.07
2022-08-05T03:55:51.842Z,5.40
2022-08-05T03:56:47.885Z,4.72
2022-08-05T03:59:22.676Z,4.67
2022-08-05T04:01:54.523Z,5.78
2022-08-05T04:04:27.895Z,5.82
2022-08-05T04:06:56.714Z,5.10
2022-08-05T04:09:26.833Z,5.93
2022-08-05T04:11:56.736Z,5.70
2022-08-05T04:14:29.559Z,6.18
2022-08-05T04:17:00.711Z,6.03
2022-08-05T04:19:29.544Z,6.10
2022-08-05T04:22:08.964Z,6.28
2022-08-05T04:24:43.998Z,5.20
2022-08-05T04:27:12.690Z,5.63
2022-08-05T04:29:40.865Z,5.95
2022-08-05T04:32:09.354Z,5.60
2022-08-05T04:34:43.069Z,5.20
2022-08-05T04:37:11.629Z,5.25
2022-08-05T04:39:42.244Z,4.45
2022-08-05T04:42:10.598Z,4.28
2022-08-05T04:44:39.822Z,4.93
2022-08-05T04:47:09.060Z,5.35
2022-08-05T04:50:02.488Z,3.80
2022-08-05T04:52:27.386Z,3.92
2022-08-05T04:54:57.971Z,5.00
2022-08-05T04:57:37.227Z,4.32
2022-08-05T05:00:06.402Z,3.90
2022-08-05T05:02:41.457Z,3.97
2022-08-05T05:05:26.484Z,4.15
2022-08-05T05:08:01.832Z,4.20
2022-08-05T05:10:33.848Z,4.00
2022-08-05T05:13:04.341Z,4.28
2022-08-05T05:15:59.333Z,3.67
2022-08-05T05:18:31.242Z,4.57
2022-08-05T05:21:03.721Z,4.18
2022-08-05T05:24:02.386Z,4.65
2022-08-05T05:26:28.142Z,3.92
2022-08-05T05:29:00.704Z,4.03
2022-08-05T05:34:02.338Z,4.13
2022-08-05T05:36:31.365Z,4.00
2022-08-05T05:38:59.808Z,4.10
2022-08-05T05:41:40.752Z,3.80
2022-08-05T05:44:35.569Z,3.63
2022-08-05T05:46:58.448Z,3.92
2022-08-05T05:49:33.092Z,4.07
2022-08-05T05:52:01.408Z,3.60
2022-08-05T05:54:49.805Z,4.03
2022-08-05T05:57:20.997Z,3.40
2022-08-05T05:59:49.254Z,3.90
2022-08-05T06:02:32.694Z,4.65
2022-08-05T06:05:10.494Z,3.40
2022-08-05T06:07:57.874Z,3.83
2022-08-05T06:10:36.357Z,3.63
2022-08-05T06:13:06.799Z,3.40
2022-08-05T06:16:28.286Z,3.65
2022-08-05T06:18:31.002Z,3.10
2022-08-05T06:20:59.980Z,3.40
2022-08-05T06:23:27.997Z,3.28
2022-08-05T06:26:20.899Z,2.70
2022-08-05T06:28:51.164Z,3.65
2022-08-05T06:31:21.877Z,3.28
2022-08-05T06:34:07.036Z,3.42
2022-08-05T06:36:53.451Z,3.22
2022-08-05T06:39:27.062Z,3.30
2022-08-05T06:41:56.546Z,3.47
2022-08-05T06:44:28.520Z,3.40
2022-08-05T06:46:56.843Z,3.40
2022-08-05T06:50:01.494Z,3.42
2022-08-05T06:52:38.018Z,2.92
2022-08-05T06:55:02.388Z,3.28
2022-08-05T06:58:03.547Z,2.63
2022-08-05T07:00:22.447Z,2.80
2022-08-05T07:02:53.617Z,2.60
2022-08-05T07:05:37.494Z,3.33
2022-08-05T07:08:10.730Z,2.83
2022-08-05T07:10:39.683Z,3.00
2022-08-05T07:13:58.835Z,1.95
2022-08-05T07:17:58.406Z,2.55
2022-08-05T07:22:28.592Z,2.30
2022-08-05T07:24:59.280Z,2.10
2022-08-05T07:27:56.355Z,2.17
2022-08-05T07:30:27.434Z,2.10
2022-08-05T07:32:59.935Z,2.78
2022-08-05T07:36:04.970Z,1.80
2022-08-05T07:38:33.357Z,1.75
2022-08-05T07:41:34.958Z,1.80
2022-08-05T07:43:53.028Z,1.85
2022-08-05T07:46:26.062Z,1.45
2022-08-05T07:49:04.012Z,1.45
2022-08-05T07:51:40.842Z,1.73
2022-08-05T07:54:18.738Z,1.90
2022-08-05T07:57:13.560Z,1.63
2022-08-05T07:59:40.151Z,1.50
2022-08-05T08:02:15.624Z,1.40
2022-08-05T08:04:48.252Z,1.27
2022-08-05T08:07:21.968Z,1.42
2022-08-05T08:09:52.516Z,1.05
2022-08-05T08:12:27.410Z,1.20
2022-08-05T08:15:02.178Z,1.10
2022-08-05T08:17:30.609Z,1.00
2022-08-05T08:20:21.308Z,1.20
2022-08-05T08:22:52.992Z,1.20
2022-08-05T08:25:34.609Z,1.23
2022-08-05T08:28:18.049Z,1.00
2022-08-05T08:30:49.856Z,1.58
2022-08-05T08:33:19.161Z,1.13
2022-08-05T08:35:53.778Z,0.98
2022-08-05T08:38:32.163Z,1.20
2022-08-05T08:41:07.194Z,0.80
2022-08-05T08:45:18.433Z,1.20
2022-08-05T08:46:27.403Z,1.02
2022-08-05T08:49:07.703Z,0.88
2022-08-05T08:52:03.193Z,1.05
2022-08-05T08:54:36.213Z,1.52
2022-08-05T08:57:11.272Z,1.10
2022-08-05T08:59:41.922Z,1.13
2022-08-05T09:02:17.406Z,0.85
2022-08-05T09:04:58.280Z,1.33
2022-08-05T09:07:39.928Z,1.10
2022-08-05T09:10:27.793Z,1.27
2022-08-05T09:13:04.692Z,1.50
2022-08-05T09:15:37.052Z,1.25
2022-08-05T09:18:08.843Z,1.42
2022-08-05T09:20:38.312Z,1.40
2022-08-05T09:23:19.971Z,1.40
2022-08-05T09:26:01.346Z,1.75
2022-08-05T09:28:33.382Z,1.77
2022-08-05T09:31:22.298Z,1.75
2022-08-05T09:33:58.538Z,1.20
2022-08-05T09:36:45.919Z,1.52
2022-08-05T09:39:39.507Z,1.42
2022-08-05T09:42:24.557Z,1.10
2022-08-05T09:45:03.321Z,1.38
2022-08-05T09:47:55.024Z,1.00
2022-08-05T09:50:38.823Z,0.80
2022-08-05T09:53:22.728Z,0.90
2022-08-05T09:56:04.820Z,1.33
2022-08-05T09:58:41.940Z,0.40
2022-08-05T10:01:15.222Z,0.80
2022-08-05T10:04:00.133Z,0.70
2022-08-05T10:06:28.927Z,0.88
2022-08-05T10:09:27.349Z,0.90
2022-08-05T10:12:30.352Z,0.70
2022-08-05T10:15:16.379Z,0.70
2022-08-05T10:17:56.528Z,0.60
2022-08-05T10:20:26.422Z,0.60
2022-08-05T10:22:54.648Z,0.68
2022-08-05T10:25:26.668Z,0.80
2022-08-05T10:28:13.635Z,0.80
2022-08-05T10:33:01.486Z,0.70
2022-08-05T10:33:36.003Z,1.38
2022-08-05T10:36:06.037Z,0.93
2022-08-05T10:38:36.574Z,1.00
2022-08-05T10:41:13.924Z,0.52
2022-08-05T10:43:51.666Z,0.45
2022-08-05T10:46:23.926Z,0.47
2022-08-05T10:49:01.500Z,0.70
2022-08-05T10:51:57.585Z,0.70
2022-08-05T10:54:56.039Z,0.70
2022-08-05T10:57:31.824Z,0.60
2022-08-05T11:00:14.778Z,0.60
2022-08-05T11:03:23.915Z,0.55
2022-08-05T11:06:15.049Z,0.50
2022-08-05T11:09:39.074Z,0.80
2022-08-05T11:12:50.554Z,0.55
2022-08-05T11:15:44.040Z,0.45
2022-08-05T11:18:27.297Z,0.50
2022-08-05T11:20:59.026Z,0.65
2022-08-05T11:24:04.751Z,0.95
2022-08-05T11:26:33.041Z,0.50
2022-08-05T11:29:12.668Z,0.90
2022-08-05T11:31:53.894Z,0.88
2022-08-05T11:34:51.688Z,0.60
2022-08-05T11:38:30.246Z,0.68
2022-08-05T11:41:34.276Z,0.70
2022-08-05T11:44:05.094Z,0.52
2022-08-05T11:46:37.719Z,0.55
2022-08-05T11:49:10.128Z,0.45
2022-08-05T11:51:49.560Z,0.57
2022-08-05T11:54:33.691Z,0.47
2022-08-05T11:57:08.533Z,0.50
2022-08-05T11:59:52.071Z,0.55
2022-08-05T12:02:30.047Z,0.70
2022-08-05T12:05:06.982Z,0.60
2022-08-05T12:08:07.429Z,0.50
2022-08-05T12:10:38.388Z,0.60
2022-08-05T12:13:15.668Z,0.55
2022-08-05T12:15:49.885Z,0.70
2022-08-05T12:18:20.779Z,0.77
2022-08-05T12:20:54.061Z,0.63
2022-08-05T12:23:22.739Z,0.40
2022-08-05T12:25:52.078Z,0.38
2022-08-05T12:28:37.058Z,0.60
2022-08-05T12:31:06.446Z,0.80
2022-08-05T12:33:36.574Z,0.40
2022-08-05T12:36:09.746Z,0.77
2022-08-05T12:38:41.124Z,0.70
2022-08-05T12:41:13.361Z,0.70
2022-08-05T12:43:52.792Z,0.63
2022-08-05T12:46:28.080Z,0.60
2022-08-05T12:48:59.629Z,0.55
2022-08-05T12:52:12.353Z,0.60
2022-08-05T12:54:26.501Z,0.50
2022-08-05T12:56:56.877Z,0.47
2022-08-05T12:59:46.668Z,0.50
2022-08-05T13:02:19.933Z,0.60
2022-08-05T13:04:52.531Z,0.40
2022-08-05T13:07:55.804Z,0.30
2022-08-05T13:10:19.626Z,0.45
2022-08-05T13:12:58.316Z,0.40
2022-08-05T13:15:41.903Z,0.80
2022-08-05T13:18:19.508Z,0.45
2022-08-05T13:20:49.723Z,0.50
2022-08-05T13:23:22.705Z,0.50
2022-08-05T13:25:59.247Z,0.73
2022-08-05T13:28:28.056Z,0.50
2022-08-05T13:30:57.186Z,0.50
2022-08-05T13:34:23.836Z,0.57
2022-08-05T13:36:14.536Z,0.35
2022-08-05T13:38:44.086Z,0.40
2022-08-05T13:41:22.515Z,0.45
2022-08-05T13:43:54.915Z,0.63
2022-08-05T13:46:44.364Z,0.68
2022-08-05T13:49:12.711Z,0.43
2022-08-05T13:51:46.318Z,0.70
2022-08-05T13:54:21.168Z,0.40
2022-08-05T13:56:54.191Z,0.50
2022-08-05T13:59:24.451Z,0.50
2022-08-05T14:01:56.412Z,0.40
2022-08-05T14:04:54.145Z,0.45
2022-08-05T14:07:56.871Z,0.60
2022-08-05T14:10:19.236Z,0.90
2022-08-05T14:12:57.387Z,0.60
2022-08-05T14:20:09.040Z,0.47
2022-08-05T14:22:50.194Z,0.55
2022-08-05T14:25:22.479Z,0.60
2022-08-05T14:27:55.947Z,0.50
2022-08-05T14:30:26.407Z,0.50
2022-08-05T14:32:54.876Z,0.68
2022-08-05T14:35:37.492Z,0.75
2022-08-05T14:38:27.669Z,0.77
2022-08-05T14:41:06.161Z,0.85
2022-08-05T14:43:59.451Z,0.57
2022-08-05T14:46:28.148Z,0.52
2022-08-05T14:48:58.128Z,0.35
2022-08-05T14:51:30.692Z,0.70
2022-08-05T14:54:26.319Z,0.50
2022-08-05T14:56:48.809Z,0.73
2022-08-05T14:59:21.189Z,0.70
2022-08-05T15:01:50.035Z,0.55
2022-08-05T15:04:20.709Z,0.50
2022-08-05T15:06:50.827Z,0.70
2022-08-05T15:09:51.890Z,0.90
2022-08-05T15:12:11.755Z,0.70
2022-08-05T15:14:49.994Z,0.55
2022-08-05T15:17:47.374Z,0.63
2022-08-05T15:20:18.687Z,0.55
2022-08-05T15:22:54.322Z,0.98
2022-08-05T15:25:50.984Z,0.68
2022-08-05T15:28:14.633Z,0.60
2022-08-05T15:30:45.541Z,0.60
2022-08-05T15:34:04.376Z,0.70
2022-08-05T15:36:04.761Z,0.80
2022-08-05T15:38:40.948Z,0.50
2022-08-05T15:41:23.917Z,1.00
2022-08-05T15:43:54.905Z,0.63
2022-08-05T15:46:24.815Z,0.90
2022-08-05T15:49:00.981Z,0.52
2022-08-05T15:52:12.646Z,0.73
2022-08-05T15:54:35.106Z,0.77
2022-08-05T15:57:07.428Z,0.50
2022-08-05T15:59:38.222Z,0.60
2022-08-05T16:02:09.724Z,0.35
2022-08-05T16:04:43.182Z,0.50
2022-08-05T16:07:12.283Z,0.57
2022-08-05T16:09:42.134Z,0.50
2022-08-05T16:12:12.157Z,0.65
2022-08-05T16:14:41.769Z,0.60
2022-08-05T16:17:10.061Z,0.50
2022-08-05T16:20:05.554Z,0.68
2022-08-05T16:22:26.449Z,0.45
2022-08-05T16:24:55.969Z,0.60
2022-08-05T16:27:47.334Z,0.80
2022-08-05T16:30:25.608Z,0.57
2022-08-05T16:32:54.905Z,0.47
2022-08-05T16:35:28.389Z,0.70
2022-08-05T16:38:11.943Z,0.70
2022-08-05T16:40:52.098Z,0.70
2022-08-05T16:43:30.252Z,0.60
2022-08-05T16:46:03.824Z,0.73
2022-08-05T16:48:39.924Z,0.60
2022-08-05T16:51:09.947Z,0.90
2022-08-05T16:54:03.885Z,0.80
2022-08-05T16:56:30.106Z,0.47
2022-08-05T16:58:58.388Z,0.80
2022-08-05T17:01:28.429Z,0.75
2022-08-05T17:04:16.422Z,0.90
2022-08-05T17:06:53.013Z,0.70
2022-08-05T17:09:23.078Z,0.60
2022-08-05T17:11:56.085Z,0.60
2022-08-05T17:14:37.386Z,0.50
2022-08-05T17:17:09.359Z,0.70
2022-08-05T17:19:45.353Z,0.68
2022-08-05T17:22:24.862Z,0.82
2022-08-05T17:24:57.210Z,0.40
2022-08-05T17:27:33.855Z,0.50
2022-08-05T17:30:03.100Z,0.80
2022-08-05T17:32:34.667Z,0.93
2022-08-05T17:35:04.009Z,0.60
2022-08-05T17:37:41.799Z,0.70
2022-08-05T17:40:15.418Z,0.50
2022-08-05T17:42:50.751Z,0.70
2022-08-05T17:45:22.102Z,0.75
2022-08-05T17:47:55.861Z,1.25
2022-08-05T17:50:28.475Z,0.70
2022-08-05T17:53:00.141Z,0.80
2022-08-05T17:55:37.638Z,0.40
2022-08-05T17:58:09.339Z,0.50
2022-08-05T18:00:39.939Z,0.60
2022-08-05T18:03:28.068Z,0.60
2022-08-05T18:06:04.689Z,0.70
2022-08-05T18:08:34.040Z,0.70
2022-08-05T18:11:03.225Z,0.52
2022-08-05T18:13:36.618Z,0.70
2022-08-05T18:16:13.420Z,0.70
2022-08-05T18:18:48.027Z,0.50
2022-08-05T18:21:21.113Z,0.50
2022-08-05T18:23:53.937Z,0.50
2022-08-05T18:26:22.390Z,0.47
2022-08-05T18:28:58.586Z,0.43
2022-08-05T18:31:33.006Z,0.65
2022-08-05T18:34:05.975Z,0.70
2022-08-05T18:36:36.014Z,0.50
2022-08-05T18:39:09.590Z,0.82
2022-08-05T18:42:01.812Z,0.63
2022-08-05T18:44:48.870Z,0.65
2022-08-05T18:47:19.955Z,0.60
2022-08-05T18:50:10.836Z,0.68
2022-08-05T18:52:41.772Z,0.65
2022-08-05T18:55:20.111Z,0.52
2022-08-05T18:57:52.693Z,0.55
2022-08-05T19:00:27.122Z,0.55
2022-08-05T19:03:03.230Z,0.93
2022-08-05T19:06:11.364Z,0.98
2022-08-05T19:08:30.529Z,0.68
2022-08-05T19:11:04.702Z,0.77
2022-08-05T19:13:36.066Z,0.82
2022-08-05T19:16:22.242Z,1.23
2022-08-05T19:18:56.515Z,0.60
2022-08-05T19:21:34.121Z,0.77
2022-08-05T19:24:07.796Z,0.90
2022-08-05T19:26:54.147Z,0.80
2022-08-05T19:29:23.796Z,0.90
2022-08-05T19:31:55.045Z,1.08
2022-08-05T19:34:26.840Z,1.10
2022-08-05T19:36:56.192Z,0.70
2022-08-05T19:39:24.265Z,0.77
2022-08-05T19:42:07.070Z,0.90
2022-08-05T19:44:45.240Z,0.70
2022-08-05T19:47:16.453Z,1.13
2022-08-05T19:49:45.226Z,0.80
2022-08-05T19:52:30.745Z,0.90
2022-08-05T19:55:06.779Z,0.83
2022-08-05T19:57:49.130Z,0.70
2022-08-05T20:00:23.900Z,1.00
2022-08-05T20:02:52.619Z,0.87
2022-08-05T20:05:24.706Z,0.80
2022-08-05T20:07:59.190Z,0.70
2022-08-05T20:10:27.339Z,0.70
2022-08-05T20:12:57.093Z,0.80
2022-08-05T20:15:52.465Z,1.03
2022-08-05T20:18:33.681Z,1.30
2022-08-05T20:21:02.461Z,1.00
2022-08-05T20:23:40.738Z,1.10
2022-08-05T20:26:20.403Z,1.20
2022-08-05T20:28:50.828Z,0.93
2022-08-05T20:31:21.534Z,0.87
2022-08-05T20:33:51.257Z,0.90
2022-08-05T20:36:20.640Z,1.00
2022-08-05T20:38:54.581Z,1.10
2022-08-05T20:41:44.486Z,0.97
2022-08-05T20:44:29.942Z,1.07
2022-08-05T20:46:59.789Z,1.00
2022-08-05T20:49:27.873Z,1.50
2022-08-05T20:51:57.897Z,1.27
2022-08-05T20:54:43.092Z,1.37
2022-08-05T20:57:24.850Z,0.77
2022-08-05T21:00:20.891Z,0.70
2022-08-05T21:03:00.056Z,0.63
2022-08-05T21:05:48.083Z,1.03
2022-08-05T21:08:17.601Z,1.10
2022-08-05T21:10:49.149Z,1.00
2022-08-05T21:13:36.727Z,0.90
2022-08-05T21:16:06.268Z,0.80
2022-08-05T21:18:34.474Z,1.07
2022-08-05T21:21:03.902Z,1.10
2022-08-05T21:23:37.151Z,2.10
2022-08-05T21:26:14.474Z,1.00
2022-08-05T21:28:47.723Z,1.03
2022-08-05T21:31:19.088Z,1.00
2022-08-05T21:38:40.604Z,1.10
2022-08-05T21:41:10.114Z,1.23
2022-08-05T21:43:41.687Z,1.23
2022-08-05T21:46:10.108Z,1.17
2022-08-05T21:48:39.964Z,1.40
2022-08-05T21:51:25.093Z,1.10
2022-08-05T21:53:59.419Z,1.10
2022-08-05T21:56:33.113Z,1.73
2022-08-05T21:59:01.395Z,1.30
2022-08-05T22:01:36.247Z,1.20
2022-08-05T22:04:04.473Z,1.00
2022-08-05T22:06:34.876Z,1.20
2022-08-05T22:09:13.868Z,1.37
2022-08-05T22:11:46.803Z,1.20
2022-08-05T22:14:32.708Z,1.03
2022-08-05T22:17:05.332Z,1.33
2022-08-05T22:20:00.467Z,0.97
2022-08-05T22:22:28.021Z,1.20
2022-08-05T22:25:18.263Z,1.27
2022-08-05T22:28:09.062Z,1.17
2022-08-05T22:30:55.272Z,1.13
2022-08-05T22:33:57.633Z,1.10
2022-08-05T22:36:15.143Z,0.87
2022-08-05T22:38:48.450Z,1.30
2022-08-05T22:42:04.164Z,1.30
2022-08-05T22:44:07.943Z,1.17
2022-08-05T22:46:40.055Z,1.20
2022-08-05T22:49:12.443Z,1.13
2022-08-05T22:52:05.105Z,1.20
2022-08-05T22:54:36.355Z,1.20
2022-08-05T22:57:05.686Z,1.00
2022-08-05T22:59:43.872Z,1.47
2022-08-05T23:02:17.344Z,1.50
2022-08-05T23:04:51.288Z,1.60
2022-08-05T23:07:21.930Z,1.90
2022-08-05T23:09:57.126Z,2.40
2022-08-05T23:12:29.000Z,3.30
2022-08-05T23:15:03.525Z,2.50
2022-08-05T23:17:37.634Z,2.20
2022-08-05T23:20:20.775Z,3.10
2022-08-05T23:22:55.914Z,2.50
2022-08-05T23:25:53.571Z,2.80
2022-08-05T23:28:17.190Z,2.90
2022-08-05T23:30:53.388Z,2.93
2022-08-05T23:33:26.438Z,2.10
2022-08-05T23:36:11.078Z,3.07
2022-08-05T23:38:42.825Z,2.50
2022-08-05T23:41:12.352Z,3.17
2022-08-05T23:44:03.801Z,2.27
2022-08-05T23:46:30.913Z,2.20
2022-08-05T23:48:59.590Z,2.60
2022-08-05T23:51:53.467Z,2.00
2022-08-05T23:54:25.969Z,2.13
2022-08-05T23:56:55.785Z,2.40
